Time;durP1;ratioP1;P1;durP2;ratioP2;P2;SDS_P1;SDS_P2;PMS_P1;PMS_P2;Temp;Humidity;BMP_temperature;BMP_pressure;BME280_temperature;BME280_humidity;BME280_pressure;Samples;Min_cycle;Max_cycle;Signal;HPM_P1;HPM_P2
2023/08/13 00:01:30;;;;;;;5.05;2.15;;;;;;;19.79;100.00;100876.47;5002384;28;20553;-75
2023/08/13 00:03:56;;;;;;;3.15;1.45;;;;;;;20.46;100.00;100973.84;5010166;28;20034;-77
2023/08/13 00:06:21;;;;;;;2.88;1.67;;;;;;;20.53;100.00;100975.38;5010629;28;20406;-77
2023/08/13 00:08:47;;;;;;;4.90;1.60;;;;;;;20.45;100.00;100964.09;5010017;28;20026;-78
2023/08/13 00:11:12;;;;;;;3.75;1.70;;;;;;;19.77;100.00;100858.78;5009799;28;20045;-78
2023/08/13 00:13:40;;;;;;;3.40;1.80;;;;;;;20.19;100.00;100946.28;5001207;28;20466;-76
2023/08/13 00:16:07;;;;;;;3.28;1.10;;;;;;;19.82;100.00;100863.03;5008699;28;20045;-77
2023/08/13 00:18:33;;;;;;;7.07;2.13;;;;;;;19.73;100.00;100865.97;5020537;28;20054;-77
2023/08/13 00:20:59;;;;;;;7.25;2.78;;;;;;;19.76;100.00;100860.59;5008645;28;20033;-77
2023/08/13 00:23:25;;;;;;;6.18;2.20;;;;;;;19.86;100.00;100893.13;5003704;28;20037;-76
2023/08/13 00:25:50;;;;;;;3.97;2.08;;;;;;;20.23;100.00;100975.47;5002135;28;20045;-76
2023/08/13 00:28:16;;;;;;;4.15;1.55;;;;;;;20.24;100.00;100978.97;5006399;28;20042;-79
2023/08/13 00:30:41;;;;;;;7.70;2.67;;;;;;;19.77;100.00;100894.28;5006763;28;20088;-77
2023/08/13 00:33:07;;;;;;;3.38;1.95;;;;;;;20.16;100.00;100979.22;5008232;28;20065;-76
2023/08/13 00:35:32;;;;;;;4.43;2.90;;;;;;;19.55;100.00;100867.41;5003493;28;20470;-78
2023/08/13 00:37:58;;;;;;;5.72;2.90;;;;;;;19.92;100.00;100943.53;5008314;28;20383;-76
2023/08/13 00:40:23;;;;;;;4.88;2.45;;;;;;;20.06;100.00;100951.09;5007863;28;20320;-76
2023/08/13 00:42:49;;;;;;;3.25;1.48;;;;;;;19.43;100.00;100857.09;5005105;28;20429;-77
2023/08/13 00:45:14;;;;;;;2.63;1.80;;;;;;;19.78;100.00;100927.09;4999099;28;20062;-77
2023/08/13 00:47:40;;;;;;;6.10;2.95;;;;;;;19.46;100.00;100862.34;5008205;28;20014;-77
2023/08/13 00:50:08;;;;;;;3.75;1.98;;;;;;;20.03;100.00;100976.06;5007136;28;20113;-75
2023/08/13 00:52:33;;;;;;;4.43;1.88;;;;;;;19.37;100.00;100862.63;5006797;28;20030;-77
2023/08/13 00:54:59;;;;;;;5.35;2.05;;;;;;;19.86;100.00;100954.38;5007427;28;20073;-75
2023/08/13 00:57:25;;;;;;;2.63;1.70;;;;;;;19.20;100.00;100863.13;5005482;28;20493;-75
2023/08/13 00:59:52;;;;;;;5.00;2.60;;;;;;;19.74;100.00;100960.94;5008299;28;20044;-76
2023/08/13 01:02:17;;;;;;;3.25;1.50;;;;;;;19.28;100.00;100873.53;5001388;28;20042;-77
2023/08/13 01:04:43;;;;;;;4.35;2.83;;;;;;;19.95;100.00;100980.75;5007323;28;20092;-77
2023/08/13 01:07:23;;;;;;;8.93;2.03;;;;;;;19.93;100.00;100977.25;5002544;28;20042;-75
2023/08/13 01:10:05;;;;;;;6.30;3.70;;;;;;;20.08;100.00;100985.72;5006369;28;20099;-78
2023/08/13 01:13:02;;;;;;;6.50;3.17;;;;;;;20.05;100.00;100993.81;4994348;28;20634;-76
2023/08/13 01:15:36;;;;;;;5.93;2.17;;;;;;;19.84;100.00;100950.91;5006023;28;20768;-76
2023/08/13 01:18:02;;;;;;;5.07;2.88;;;;;;;19.88;100.00;100949.00;5007033;28;20030;-76
2023/08/13 01:20:42;;;;;;;5.75;2.45;;;;;;;19.93;100.00;100958.59;5004941;28;20474;-76
2023/08/13 01:23:08;;;;;;;5.10;2.17;;;;;;;19.32;100.00;100873.41;5004309;28;20073;-77
2023/08/13 01:25:34;;;;;;;6.18;3.17;;;;;;;19.98;100.00;100985.13;5001626;28;20145;-76
2023/08/13 01:28:14;;;;;;;4.50;2.47;;;;;;;20.02;100.00;100986.78;5006502;28;20030;-75
2023/08/13 01:30:52;;;;;;;5.53;2.42;;;;;;;20.00;100.00;100986.81;5006659;28;20264;-77
2023/08/13 01:33:27;;;;;;;4.47;2.55;;;;;;;20.06;100.00;100993.72;5001718;28;20040;-74
2023/08/13 01:54:09;;;;;;;4.28;2.53;;;;;;;19.98;100.00;100977.13;5029875;27;20616;-78
2023/08/13 01:56:34;;;;;;;4.28;1.95;;;;;;;19.78;100.00;100956.38;5014688;28;20445;-76
2023/08/13 01:59:00;;;;;;;3.28;2.22;;;;;;;19.32;100.00;100883.19;5015024;28;20460;-76
2023/08/13 02:01:25;;;;;;;3.00;2.03;;;;;;;19.73;100.00;100974.28;5012321;28;20459;-77
2023/08/13 02:03:51;;;;;;;3.22;1.67;;;;;;;19.17;100.00;100879.13;5008059;28;20080;-77
2023/08/13 02:06:16;;;;;;;2.38;1.42;;;;;;;19.31;100.00;100882.28;5008598;28;20035;-74
2023/08/13 02:08:42;;;;;;;7.95;2.42;;;;;;;19.57;100.00;100945.44;5004908;28;20432;-75
2023/08/13 02:11:07;;;;;;;3.95;2.15;;;;;;;19.81;100.00;100972.31;5004209;28;20743;-75
2023/08/13 02:13:33;;;;;;;5.97;3.28;;;;;;;19.58;100.00;100952.50;5002040;28;20029;-75
2023/08/13 02:16:05;;;;;;;4.85;1.80;;;;;;;19.64;100.00;100978.06;5005245;28;20060;-76
2023/08/13 02:18:31;;;;;;;5.60;2.95;;;;;;;19.27;100.00;100906.34;5017868;28;20045;-76
2023/08/13 02:20:56;;;;;;;4.07;2.50;;;;;;;19.11;100.00;100885.53;5008894;28;20033;-76
2023/08/13 02:23:22;;;;;;;12.45;2.70;;;;;;;19.25;100.00;100887.78;5015579;28;20084;-75
2023/08/13 02:25:47;;;;;;;8.85;3.90;;;;;;;19.72;100.00;100980.56;5007032;28;20042;-76
2023/08/13 02:28:13;;;;;;;3.67;2.25;;;;;;;19.75;100.00;100975.13;5005090;28;20195;-77
2023/08/13 02:30:39;;;;;;;3.47;1.98;;;;;;;19.70;100.00;100966.41;5009402;28;20050;-78
2023/08/13 02:33:04;;;;;;;3.80;2.50;;;;;;;19.82;100.00;100982.03;5003615;28;20112;-77
2023/08/13 02:35:30;;;;;;;5.65;2.25;;;;;;;19.70;100.00;100966.41;5003630;28;20046;-75
2023/08/13 02:37:55;;;;;;;8.90;4.00;;;;;;;19.52;100.00;100935.81;5011262;28;20062;-75
2023/08/13 02:40:21;;;;;;;3.92;2.28;;;;;;;19.60;100.00;100963.09;5005320;28;20033;-76
2023/08/13 02:42:46;;;;;;;5.20;2.30;;;;;;;19.10;100.00;100877.56;5012422;28;20125;-75
2023/08/13 02:45:12;;;;;;;4.55;2.88;;;;;;;19.43;100.00;100890.84;5001652;28;20046;-76
2023/08/13 02:47:37;;;;;;;6.47;2.58;;;;;;;19.39;100.00;100885.59;4993408;28;20121;-75
2023/08/13 02:50:03;;;;;;;3.40;1.92;;;;;;;19.35;100.00;100883.94;5006651;28;20052;-76
2023/08/13 02:52:28;;;;;;;4.10;2.22;;;;;;;19.38;100.00;100968.13;5008267;28;20570;-76
2023/08/13 02:54:54;;;;;;;3.08;2.72;;;;;;;19.62;100.00;100990.56;5012037;28;20085;-76
2023/08/13 02:57:19;;;;;;;6.43;3.05;;;;;;;19.06;100.00;100918.47;5014811;28;20041;-76
2023/08/13 02:59:45;;;;;;;5.78;2.47;;;;;;;18.92;100.00;100902.91;5011211;28;20038;-76
2023/08/13 03:02:10;;;;;;;3.65;2.50;;;;;;;18.84;100.00;100891.56;5008719;28;20259;-77
2023/08/13 03:04:36;;;;;;;3.95;2.13;;;;;;;19.19;100.00;100912.75;5010480;28;20047;-75
2023/08/13 03:07:01;;;;;;;4.22;2.90;;;;;;;19.69;100.00;100956.66;5001773;28;20030;-77
2023/08/13 03:09:27;;;;;;;5.78;3.17;;;;;;;19.44;100.00;100909.44;5001983;28;20058;-74
2023/08/13 03:11:52;;;;;;;3.78;2.15;;;;;;;19.74;100.00;100984.06;5002174;28;20620;-76
2023/08/13 03:14:18;;;;;;;5.20;2.75;;;;;;;19.10;100.00;100901.50;4992055;28;20053;-77
2023/08/13 03:16:43;;;;;;;3.20;2.65;;;;;;;19.71;100.00;100971.66;4994964;28;20047;-78
2023/08/13 03:19:09;;;;;;;3.20;2.35;;;;;;;19.96;100.00;101000.25;4998773;28;20042;-79
2023/08/13 03:21:34;;;;;;;4.85;3.03;;;;;;;19.91;100.00;100973.75;4994855;28;20030;-76
2023/08/13 03:24:00;;;;;;;9.23;2.30;;;;;;;19.52;100.00;100915.38;4991655;28;20050;-75
2023/08/13 03:26:25;;;;;;;3.55;2.10;;;;;;;19.38;100.00;100920.25;4992165;28;20078;-78
2023/08/13 03:28:51;;;;;;;5.45;2.28;;;;;;;19.32;100.00;100918.63;4992164;28;20049;-76
2023/08/13 03:31:17;;;;;;;7.72;3.10;;;;;;;19.60;100.00;100971.97;4992727;28;20033;-77
2023/08/13 03:33:42;;;;;;;4.70;2.47;;;;;;;19.85;100.00;100997.03;4994092;28;20022;-76
2023/08/13 03:36:08;;;;;;;4.10;2.10;;;;;;;19.93;100.00;100985.25;4999152;28;20893;-76
2023/08/13 03:38:33;;;;;;;3.95;2.50;;;;;;;19.95;100.00;100998.53;4990319;28;20050;-77
2023/08/13 03:40:59;;;;;;;4.45;2.60;;;;;;;19.87;100.00;101003.19;4996067;28;20425;-77
2023/08/13 03:43:24;;;;;;;5.00;2.85;;;;;;;19.27;100.00;100901.03;4992099;28;20029;-76
2023/08/13 03:45:50;;;;;;;4.57;2.63;;;;;;;19.37;100.00;100916.72;5005189;28;20018;-76
2023/08/13 03:48:15;;;;;;;3.25;2.15;;;;;;;19.84;100.00;101005.97;4995858;28;20084;-75
2023/08/13 03:50:41;;;;;;;4.80;2.78;;;;;;;19.34;100.00;100915.94;4995670;28;20290;-77
2023/08/13 03:53:08;;;;;;;6.60;3.03;;;;;;;19.93;100.00;101001.22;4992219;28;20058;-76
2023/08/13 03:55:33;;;;;;;4.68;2.53;;;;;;;19.44;100.00;100922.75;4989330;28;20385;-77
2023/08/13 03:57:59;;;;;;;5.97;2.70;;;;;;;19.90;100.00;100981.78;4997981;28;20034;-77
2023/08/13 04:00:24;;;;;;;4.90;2.63;;;;;;;20.08;100.00;101007.03;5003884;28;20042;-77
2023/08/13 04:02:49;;;;;;;8.88;2.80;;;;;;;19.39;100.00;100900.72;4998650;28;20041;-77
2023/08/13 04:05:15;;;;;;;8.73;2.40;;;;;;;19.60;100.00;100945.34;4998932;28;20124;-75
2023/08/13 04:07:41;;;;;;;4.60;2.17;;;;;;;19.39;100.00;100927.31;5020137;28;20039;-75
2023/08/13 04:10:07;;;;;;;4.78;2.40;;;;;;;19.31;100.00;100924.84;5001507;28;20080;-76
2023/08/13 04:12:32;;;;;;;3.80;2.30;;;;;;;19.26;100.00;100912.59;4989470;28;20485;-76
2023/08/13 04:14:58;;;;;;;5.90;3.13;;;;;;;19.33;100.00;100924.81;4995027;28;20042;-75
2023/08/13 04:17:23;;;;;;;5.25;3.88;;;;;;;19.77;100.00;101006.13;4990619;28;20043;-76
2023/08/13 04:19:50;;;;;;;3.30;1.98;;;;;;;19.10;100.00;100890.88;4993325;28;20049;-77
2023/08/13 04:22:15;;;;;;;7.03;3.47;;;;;;;20.00;100.00;101005.47;4991756;28;20382;-77
2023/08/13 04:24:41;;;;;;;4.07;2.10;;;;;;;19.49;100.00;100899.50;4980465;28;20058;-75
2023/08/13 04:27:06;;;;;;;3.35;2.55;;;;;;;20.23;100.00;101015.44;4990406;28;20069;-76
2023/08/13 04:29:32;;;;;;;5.18;2.60;;;;;;;19.48;100.00;100915.50;4993671;28;20679;-75
2023/08/13 04:31:57;;;;;;;3.92;2.55;;;;;;;20.19;100.00;101013.78;4995028;28;20039;-77
2023/08/13 04:34:22;;;;;;;6.03;2.58;;;;;;;20.28;100.00;101017.97;4989678;28;20576;-75
2023/08/13 04:36:48;;;;;;;3.50;2.40;;;;;;;19.62;100.00;100918.69;4993495;28;20026;-76
2023/08/13 04:39:13;;;;;;;4.40;2.15;;;;;;;19.65;100.00;100933.69;5015959;28;20111;-76
2023/08/13 04:41:40;;;;;;;4.10;2.78;;;;;;;19.83;100.00;100938.50;4987174;28;20085;-76
2023/08/13 04:44:05;;;;;;;6.00;3.03;;;;;;;19.78;100.00;100962.63;4989253;28;20556;-76
2023/08/13 04:46:31;;;;;;;2.63;1.55;;;;;;;20.18;100.00;101033.34;4995853;28;20039;-74
2023/08/13 04:48:57;;;;;;;4.45;2.58;;;;;;;20.34;100.00;101041.75;4997149;28;20080;-75
2023/08/13 04:51:22;;;;;;;4.43;3.05;;;;;;;20.31;100.00;101044.50;4989332;28;20133;-77
2023/08/13 04:53:48;;;;;;;5.20;4.10;;;;;;;20.43;100.00;101041.47;4977765;28;20046;-76
2023/08/13 04:56:13;;;;;;;4.30;2.33;;;;;;;19.86;100.00;100935.75;4991306;28;20561;-77
2023/08/13 04:58:39;;;;;;;5.20;2.10;;;;;;;20.54;100.00;101048.28;5000527;28;20050;-76
2023/08/13 05:01:05;;;;;;;4.28;2.47;;;;;;;20.45;100.00;101022.75;4999052;28;20449;-77
2023/08/13 05:03:31;;;;;;;4.25;3.30;;;;;;;20.07;100.00;100962.66;5029429;28;20034;-76
2023/08/13 05:05:57;;;;;;;4.53;2.33;;;;;;;20.41;100.00;101026.44;4992877;28;20065;-76
2023/08/13 05:08:22;;;;;;;3.08;2.30;;;;;;;19.86;100.00;100929.56;4981159;28;20030;-75
2023/08/13 05:10:48;;;;;;;7.82;2.58;;;;;;;20.49;100.00;101034.22;5003634;28;20069;-76
2023/08/13 05:13:14;;;;;;;4.15;2.25;;;;;;;19.96;100.00;100942.53;4986727;28;20037;-76
2023/08/13 05:15:40;;;;;;;2.88;2.05;;;;;;;20.30;100.00;100975.25;4993851;28;20034;-75
2023/08/13 05:18:06;;;;;;;4.15;1.90;;;;;;;20.12;100.00;100942.06;4993425;28;20178;-76
2023/08/13 05:20:32;;;;;;;3.88;1.92;;;;;;;20.94;100.00;101058.56;4987992;28;20062;-75
2023/08/13 05:22:57;;;;;;;3.15;1.77;;;;;;;21.07;100.00;101048.34;4989343;28;20045;-75
2023/08/13 05:25:23;;;;;;;5.22;2.75;;;;;;;21.07;100.00;101037.66;4993654;28;20044;-76
2023/08/13 05:27:48;;;;;;;4.20;2.55;;;;;;;21.32;100.00;100954.09;4987554;28;20308;-76
2023/08/13 05:30:14;;;;;;;3.20;2.33;;;;;;;21.66;100.00;100962.66;4996591;28;20505;-77
2023/08/13 05:32:40;;;;;;;4.78;2.75;;;;;;;22.50;100.00;101059.25;4990559;28;20048;-77
2023/08/13 05:35:06;;;;;;;3.90;2.78;;;;;;;22.89;100.00;101061.28;4991961;28;20046;-77
2023/08/13 05:37:32;;;;;;;4.53;1.70;;;;;;;22.82;100.00;100984.88;4996943;28;20033;-77
2023/08/13 05:39:57;;;;;;;3.08;2.42;;;;;;;24.28;100.00;101021.28;4991260;28;20096;-75
2023/08/13 05:42:23;;;;;;;2.10;1.27;;;;;;;24.27;96.55;101051.75;4987510;28;20051;-75
2023/08/13 05:44:48;;;;;;;1.77;0.80;;;;;;;25.10;90.18;101051.31;4997455;28;20045;-74
2023/08/13 05:47:13;;;;;;;4.50;2.30;;;;;;;25.14;82.15;101031.38;4998913;28;20050;-77
2023/08/13 05:49:39;;;;;;;3.63;1.88;;;;;;;24.38;83.29;101003.84;4993467;28;20195;-77
2023/08/13 05:52:05;;;;;;;4.47;2.10;;;;;;;24.72;82.38;101056.75;4987529;28;20132;-76
2023/08/13 05:54:30;;;;;;;2.70;1.75;;;;;;;25.01;80.57;101060.69;4991445;28;20065;-76
2023/08/13 05:56:56;;;;;;;2.70;1.52;;;;;;;25.17;76.63;101042.00;4973881;28;20042;-76
2023/08/13 05:59:21;;;;;;;4.18;2.33;;;;;;;26.13;68.16;100970.66;4971416;28;20058;-75
2023/08/13 06:01:47;;;;;;;2.15;1.10;;;;;;;25.36;70.93;100971.25;4987264;28;20445;-77
2023/08/13 06:04:14;;;;;;;3.22;1.45;;;;;;;25.90;69.81;101020.31;4982586;28;20041;-79
2023/08/13 06:06:39;;;;;;;2.00;1.35;;;;;;;25.80;64.99;100981.41;4987129;28;20038;-79
2023/08/13 06:09:05;;;;;;;2.97;1.30;;;;;;;25.45;67.56;100979.69;4987421;28;20101;-78
2023/08/13 06:11:32;;;;;;;2.15;1.05;;;;;;;25.12;67.76;101065.50;4988524;28;20038;-77
2023/08/13 06:13:57;;;;;;;3.05;1.33;;;;;;;25.40;67.55;101042.66;4984381;28;20054;-76
2023/08/13 06:16:23;;;;;;;2.65;1.23;;;;;;;26.30;63.92;101070.09;4991798;28;20537;-77
2023/08/13 06:18:48;;;;;;;0.95;0.68;;;;;;;25.57;63.57;101045.34;4989291;28;20607;-76
2023/08/13 06:21:14;;;;;;;1.83;1.23;;;;;;;24.80;64.28;100997.34;4986806;28;20042;-77
2023/08/13 06:23:39;;;;;;;2.75;1.55;;;;;;;26.10;63.77;101055.03;5025230;28;20401;-78
2023/08/13 06:26:06;;;;;;;2.08;1.15;;;;;;;25.21;63.86;100954.09;4991427;28;20052;-78
2023/08/13 06:28:32;;;;;;;2.40;0.98;;;;;;;26.16;61.40;100975.84;4987084;28;20037;-76
2023/08/13 06:30:58;;;;;;;3.20;1.35;;;;;;;26.64;57.29;100976.69;5026725;28;20027;-76
2023/08/13 06:33:23;;;;;;;2.75;1.02;;;;;;;26.61;58.02;101060.34;4997639;28;20489;-77
2023/08/13 06:35:49;;;;;;;3.28;2.05;;;;;;;25.70;60.05;101081.34;4990874;28;20123;-79
2023/08/13 06:38:14;;;;;;;2.83;1.15;;;;;;;25.20;61.44;100988.16;4992955;28;20042;-78
2023/08/13 06:40:40;;;;;;;2.55;1.60;;;;;;;26.13;61.11;101091.69;4992923;28;20424;-76
2023/08/13 06:43:05;;;;;;;2.50;1.73;;;;;;;26.10;61.85;101065.81;4995678;28;20121;-78
2023/08/13 06:45:31;;;;;;;5.85;2.17;;;;;;;26.86;59.47;101065.19;4993550;28;20565;-75
2023/08/13 06:47:57;;;;;;;1.25;0.75;;;;;;;26.56;57.88;100978.97;4994163;28;20449;-77
2023/08/13 06:50:23;;;;;;;3.45;1.63;;;;;;;26.21;56.32;100984.53;4994056;28;20613;-75
2023/08/13 06:52:48;;;;;;;2.03;1.23;;;;;;;26.24;59.63;101067.75;4987562;28;20061;-79
2023/08/13 06:55:14;;;;;;;2.40;1.27;;;;;;;26.27;59.63;100965.34;4993582;28;20145;-78
2023/08/13 06:57:39;;;;;;;2.53;1.33;;;;;;;26.93;58.02;101066.59;4994361;28;20451;-78
2023/08/13 07:00:05;;;;;;;4.25;1.60;;;;;;;25.87;56.80;100989.09;4994032;28;20046;-79
2023/08/13 07:02:31;;;;;;;1.85;1.55;;;;;;;26.07;57.05;101049.84;4993450;28;20048;-75
2023/08/13 07:04:57;;;;;;;2.42;1.10;;;;;;;25.66;58.16;101041.28;4997983;28;20035;-78
2023/08/13 07:07:22;;;;;;;1.38;0.88;;;;;;;25.57;58.69;101044.47;4999770;28;20026;-76
2023/08/13 07:09:48;;;;;;;2.92;1.10;;;;;;;25.21;59.07;100964.84;4995587;28;20042;-76
2023/08/13 07:12:13;;;;;;;0.98;0.60;;;;;;;25.67;58.03;101022.38;4992406;28;20042;-76
2023/08/13 07:14:40;;;;;;;1.90;0.75;;;;;;;25.77;56.93;101068.47;4991503;28;20039;-76
2023/08/13 07:17:06;;;;;;;1.20;0.70;;;;;;;25.06;57.82;100961.97;4989312;28;20046;-76
2023/08/13 07:19:32;;;;;;;3.03;1.80;;;;;;;25.72;58.77;101064.28;4993095;28;20061;-76
2023/08/13 07:21:58;;;;;;;1.55;1.00;;;;;;;25.73;58.07;101053.47;4989551;28;20034;-75
2023/08/13 07:24:23;;;;;;;2.15;1.38;;;;;;;25.58;57.48;101086.53;4990859;28;20046;-77
2023/08/13 07:26:49;;;;;;;12.55;5.22;;;;;;;25.73;57.74;101066.03;4992589;28;20505;-76
2023/08/13 07:29:15;;;;;;;0.95;0.63;;;;;;;24.27;56.90;100784.41;4993554;28;20060;-77
2023/08/13 07:31:41;;;;;;;2.65;0.98;;;;;;;26.00;55.30;101072.66;4989099;28;20046;-77
2023/08/13 07:34:06;;;;;;;2.22;1.38;;;;;;;25.73;55.69;101050.78;4972200;28;20034;-76
2023/08/13 07:36:32;;;;;;;1.92;1.27;;;;;;;25.83;54.84;101041.25;4969206;28;20121;-76
2023/08/13 07:38:57;;;;;;;1.10;0.60;;;;;;;25.51;54.32;101009.84;4978065;28;20390;-75
2023/08/13 07:41:23;;;;;;;2.05;0.80;;;;;;;26.14;55.02;101062.97;4988216;28;20053;-77
2023/08/13 07:43:48;;;;;;;1.80;0.80;;;;;;;25.76;55.12;101014.78;4984893;28;20081;-77
2023/08/13 07:46:13;;;;;;;3.00;1.58;;;;;;;25.55;55.10;100971.97;4994437;28;20448;-78
2023/08/13 07:48:39;;;;;;;0.95;0.80;;;;;;;25.83;54.30;100975.88;4992183;28;20085;-76
2023/08/13 07:51:04;;;;;;;4.88;1.45;;;;;;;26.01;53.62;100968.63;4995698;28;20042;-76
2023/08/13 07:53:31;;;;;;;1.27;0.70;;;;;;;26.55;52.14;101054.44;4991223;28;20054;-77
2023/08/13 07:55:57;;;;;;;1.88;1.25;;;;;;;25.96;52.27;100963.50;4988524;28;20038;-78
2023/08/13 07:58:22;;;;;;;2.45;1.02;;;;;;;26.09;51.56;100998.66;4986480;28;20026;-76
2023/08/13 08:00:48;;;;;;;1.30;1.10;;;;;;;25.63;51.26;100952.75;4988965;28;20058;-77
2023/08/13 08:03:15;;;;;;;3.83;0.98;;;;;;;25.59;50.12;100948.47;4987986;28;20066;-77
2023/08/13 08:05:47;;;;;;;1.88;0.88;;;;;;;25.73;50.20;100961.19;4980125;28;20042;-77
2023/08/13 08:08:13;;;;;;;1.25;0.93;;;;;;;26.28;50.21;101036.16;4988518;28;20062;-77
2023/08/13 08:10:39;;;;;;;1.80;1.00;;;;;;;25.88;49.73;100942.41;4977494;28;20042;-76
2023/08/13 08:13:04;;;;;;;7.05;1.33;;;;;;;26.56;49.87;101030.13;4982344;28;20081;-76
2023/08/13 08:15:30;;;;;;;2.53;1.48;;;;;;;26.00;49.01;100937.31;4982212;28;20161;-77
2023/08/13 08:17:56;;;;;;;1.38;0.98;;;;;;;26.41;49.14;101052.47;4988006;28;20042;-77
2023/08/13 08:20:22;;;;;;;1.95;0.93;;;;;;;25.92;48.87;100943.13;4988006;28;20058;-78
2023/08/13 08:22:47;;;;;;;1.10;0.68;;;;;;;26.59;48.37;101042.53;4983155;28;20449;-75
2023/08/13 08:25:13;;;;;;;1.40;0.93;;;;;;;24.87;48.38;100724.94;4998503;28;20038;-77
2023/08/13 08:27:38;;;;;;;2.17;0.80;;;;;;;26.42;48.30;101035.41;4986737;28;20042;-77
2023/08/13 08:30:04;;;;;;;1.45;0.80;;;;;;;26.63;48.20;101036.03;4988184;28;20043;-76
2023/08/13 08:32:31;;;;;;;1.42;1.27;;;;;;;26.19;48.62;100935.31;4984388;28;20092;-76
2023/08/13 08:34:56;;;;;;;4.95;1.08;;;;;;;26.28;48.36;100944.69;4986332;28;20547;-77
2023/08/13 08:37:22;;;;;;;1.10;0.80;;;;;;;26.46;48.79;100946.31;4984309;28;20166;-77
2023/08/13 08:39:47;;;;;;;1.42;1.02;;;;;;;26.76;48.63;100953.56;4989139;28;20035;-76
2023/08/13 08:42:13;;;;;;;3.70;1.73;;;;;;;27.38;47.92;101028.94;4983182;28;20074;-76
2023/08/13 08:44:45;;;;;;;1.77;0.93;;;;;;;27.55;47.07;101025.22;4987971;28;20038;-77
2023/08/13 08:47:11;;;;;;;2.35;1.02;;;;;;;27.25;47.58;100990.22;4983699;28;20058;-78
2023/08/13 08:49:37;;;;;;;2.05;1.17;;;;;;;27.47;47.79;100938.56;4986203;28;20149;-78
2023/08/13 08:52:05;;;;;;;2.35;1.05;;;;;;;27.78;47.42;100953.66;4985157;28;20189;-77
2023/08/13 08:54:30;;;;;;;2.38;1.33;;;;;;;27.74;46.26;100938.63;4984410;28;20895;-76
2023/08/13 08:56:56;;;;;;;1.40;0.60;;;;;;;28.27;45.67;101003.66;4987782;28;20050;-76
2023/08/13 08:59:22;;;;;;;3.60;1.83;;;;;;;28.09;45.04;101009.25;4978412;28;20047;-76
2023/08/13 09:01:47;;;;;;;2.10;1.58;;;;;;;27.57;45.39;100928.94;4987259;28;20043;-77
2023/08/13 09:04:12;;;;;;;1.13;0.65;;;;;;;27.93;45.76;101011.19;4988430;28;20579;-79
2023/08/13 09:06:58;;;;;;;1.80;0.80;;;;;;;28.79;44.58;101020.00;4979838;28;20415;-76
2023/08/13 09:09:27;;;;;;;1.70;1.15;;;;;;;28.53;44.44;100943.44;4986087;28;20200;-77
2023/08/13 09:11:55;;;;;;;2.60;1.13;;;;;;;29.02;44.05;101004.09;4981293;28;20762;-78
2023/08/13 09:14:21;;;;;;;2.38;1.63;;;;;;;29.27;42.80;100994.31;4985203;28;20497;-76
2023/08/13 09:16:48;;;;;;;2.58;1.45;;;;;;;28.94;43.77;101004.63;4985918;28;20066;-77
2023/08/13 09:19:15;;;;;;;2.55;1.48;;;;;;;29.13;42.61;100928.59;4987893;28;20038;-79
2023/08/13 09:21:48;;;;;;;2.15;0.90;;;;;;;29.17;42.72;100991.38;4987269;28;20469;-78
2023/08/13 09:24:14;;;;;;;1.70;0.93;;;;;;;29.78;42.96;100997.97;4987278;28;20141;-78
2023/08/13 09:26:39;;;;;;;2.63;1.48;;;;;;;30.36;42.10;100994.72;4986299;28;20030;-76
2023/08/13 09:29:08;;;;;;;1.88;1.40;;;;;;;29.16;43.33;100989.66;4987509;28;20516;-76
2023/08/13 09:31:35;;;;;;;1.85;1.02;;;;;;;28.67;43.14;100914.63;4987232;28;20026;-78
2023/08/13 09:34:01;;;;;;;4.63;1.25;;;;;;;28.67;42.64;100937.09;4985877;28;20486;-77
2023/08/13 09:36:28;;;;;;;2.47;1.35;;;;;;;28.54;44.21;100963.19;4981531;28;20046;-77
2023/08/13 09:38:53;;;;;;;2.72;1.52;;;;;;;27.91;45.07;100980.75;4985648;28;20042;-76
2023/08/13 09:41:20;;;;;;;3.35;1.63;;;;;;;27.92;45.62;100999.53;4992984;28;20109;-76
2023/08/13 09:43:47;;;;;;;1.58;1.08;;;;;;;28.69;43.74;100918.09;4979174;28;20118;-76
2023/08/13 09:46:19;;;;;;;1.88;1.33;;;;;;;29.50;42.93;100923.28;4983646;28;20145;-79
2023/08/13 09:48:46;;;;;;;1.35;0.88;;;;;;;30.31;42.37;100964.41;4980521;28;20042;-77
2023/08/13 09:51:13;;;;;;;2.13;0.98;;;;;;;29.63;42.05;100883.53;4985315;28;20126;-77
2023/08/13 09:53:48;;;;;;;1.40;0.73;;;;;;;30.49;42.55;100974.72;4976917;28;20093;-77
2023/08/13 09:56:16;;;;;;;1.85;1.52;;;;;;;30.44;40.87;100971.50;4982698;28;20154;-78
2023/08/13 09:58:42;;;;;;;1.23;0.85;;;;;;;29.76;41.44;100961.13;4987410;28;20047;-77
2023/08/13 10:01:08;;;;;;;2.00;1.38;;;;;;;31.46;39.87;100974.63;4987577;28;20033;-76
2023/08/13 10:03:34;;;;;;;2.83;1.30;;;;;;;31.94;40.60;100884.81;4982860;28;20851;-76
2023/08/13 10:06:00;;;;;;;2.17;1.05;;;;;;;32.51;38.28;100970.63;4981995;28;20440;-76
2023/08/13 10:08:26;;;;;;;1.98;1.15;;;;;;;32.16;37.92;100924.63;4985397;28;20058;-78
2023/08/13 10:10:51;;;;;;;4.93;1.38;;;;;;;30.41;39.06;100876.91;4984629;28;20082;-76
2023/08/13 10:13:18;;;;;;;1.80;1.27;;;;;;;30.34;40.16;100900.03;4984551;28;20049;-79
2023/08/13 10:15:45;;;;;;;2.22;1.27;;;;;;;31.74;39.24;100872.84;4990805;28;20030;-78
2023/08/13 10:18:11;;;;;;;1.60;1.00;;;;;;;32.41;38.08;100879.13;4988060;28;20066;-77
2023/08/13 10:20:43;;;;;;;1.88;1.30;;;;;;;31.01;38.70;100960.94;4987415;28;20065;-78
2023/08/13 10:23:10;;;;;;;1.47;1.13;;;;;;;31.35;39.10;100956.44;4990727;28;20042;-77
2023/08/13 10:25:38;;;;;;;1.67;1.08;;;;;;;32.38;37.80;100957.19;4990355;28;20499;-77
2023/08/13 10:28:24;;;;;;;1.98;0.90;;;;;;;33.41;37.12;100962.03;4991460;28;20121;-77
2023/08/13 10:30:49;;;;;;;2.85;1.20;;;;;;;29.70;39.23;100872.31;5018007;28;20389;-79
2023/08/13 10:33:15;;;;;;;1.80;1.27;;;;;;;29.49;40.71;100891.78;4992229;28;20057;-76
2023/08/13 10:35:42;;;;;;;2.80;0.95;;;;;;;30.04;39.57;100887.81;4990248;28;20038;-76
2023/08/13 10:38:08;;;;;;;1.48;0.85;;;;;;;30.91;38.75;100885.75;4984357;28;20051;-77
2023/08/13 10:40:34;;;;;;;4.22;1.10;;;;;;;31.96;36.61;100891.88;4990254;28;20049;-77
2023/08/13 10:43:03;;;;;;;2.10;1.15;;;;;;;32.42;36.65;100867.25;4983719;28;20129;-78
2023/08/13 10:45:32;;;;;;;2.13;1.48;;;;;;;32.36;36.80;100899.41;4982260;28;20161;-77
2023/08/13 10:48:03;;;;;;;2.33;0.75;;;;;;;32.08;37.79;100928.00;4986511;28;20728;-79
2023/08/13 10:50:41;;;;;;;2.38;1.00;;;;;;;32.33;36.63;100942.25;4990225;28;20501;-78
2023/08/13 10:53:11;;;;;;;4.63;1.55;;;;;;;33.47;36.27;100946.16;4985777;28;20133;-78
2023/08/13 10:55:49;;;;;;;2.03;1.38;;;;;;;33.94;36.19;100943.81;4985597;28;20529;-76
2023/08/13 10:58:39;;;;;;;2.17;1.05;;;;;;;30.95;36.12;100880.94;4988540;28;20030;-77
2023/08/13 11:01:19;;;;;;;1.90;1.48;;;;;;;32.45;36.23;100850.69;4977697;28;20093;-79
2023/08/13 11:03:55;;;;;;;1.73;1.15;;;;;;;33.61;35.69;100930.38;4989768;28;20374;-78
2023/08/13 11:06:23;;;;;;;1.90;1.13;;;;;;;31.52;36.53;100914.47;4980601;28;20632;-78
2023/08/13 11:08:49;;;;;;;5.00;1.98;;;;;;;29.94;38.53;100851.56;4989585;28;20441;-78
2023/08/13 11:11:16;;;;;;;1.45;0.88;;;;;;;30.97;37.77;100906.06;4988059;28;20049;-77
2023/08/13 11:13:42;;;;;;;2.28;1.40;;;;;;;31.80;37.50;100857.94;4978866;28;20042;-77
2023/08/13 11:16:07;;;;;;;2.80;1.45;;;;;;;31.63;37.50;100917.19;4989743;28;20581;-78
2023/08/13 11:18:33;;;;;;;1.73;0.60;;;;;;;31.34;37.61;100895.06;4989355;28;20034;-77
2023/08/13 11:21:00;;;;;;;1.35;1.25;;;;;;;30.84;38.00;100821.31;4988926;28;20130;-77
2023/08/13 11:23:25;;;;;;;1.48;0.63;;;;;;;31.27;37.93;100902.81;4984182;28;20050;-79
2023/08/13 11:25:52;;;;;;;3.10;1.63;;;;;;;30.28;38.88;100843.66;4985108;28;20050;-77
2023/08/13 11:28:22;;;;;;;1.38;0.80;;;;;;;30.39;38.91;100829.28;4983267;28;20118;-76
2023/08/13 11:30:50;;;;;;;0.98;0.70;;;;;;;28.93;40.51;100812.88;4988377;28;20430;-77
2023/08/13 11:33:16;;;;;;;2.47;1.00;;;;;;;29.45;40.58;100888.47;4986402;28;20054;-78
2023/08/13 11:35:41;;;;;;;2.90;1.55;;;;;;;28.89;40.54;100897.81;4989411;28;20046;-77
2023/08/13 11:38:07;;;;;;;3.50;1.20;;;;;;;29.05;41.03;100899.34;4988814;28;20034;-75